Time;durP1;ratioP1;P1;durP2;ratioP2;P2;SDS_P1;SDS_P2;PMS_P1;PMS_P2;Temp;Humidity;BMP_temperature;BMP_pressure;BME280_temperature;BME280_humidity;BME280_pressure;Samples;Min_cycle;Max_cycle;Signal;HPM_P1;HPM_P2
2023/08/19 00:01:27;;;;;;;8.50;8.40;;;24.90;99.90;;;;;;4988589;28;20942;-67
2023/08/19 00:03:55;;;;;;;8.50;8.40;;;24.90;99.90;;;;;;4991392;28;20536;-67
2023/08/19 00:06:38;;;;;;;9.23;9.03;;;24.90;99.90;;;;;;4989201;28;20562;-67
2023/08/19 00:09:08;;;;;;;8.50;8.40;;;24.90;99.90;;;;;;4979552;28;20471;-67
2023/08/19 00:11:37;;;;;;;8.50;8.40;;;24.90;99.90;;;;;;4989592;28;20469;-67
2023/08/19 00:14:05;;;;;;;8.93;8.83;;;24.90;99.90;;;;;;4990403;28;20902;-67
2023/08/19 00:16:32;;;;;;;8.90;8.80;;;24.90;99.90;;;;;;4988445;28;20572;-68
2023/08/19 00:18:59;;;;;;;9.33;9.13;;;24.90;99.90;;;;;;4989421;28;20478;-67
2023/08/19 00:21:26;;;;;;;8.90;8.80;;;24.90;99.90;;;;;;4985531;28;20481;-68
2023/08/19 00:23:56;;;;;;;8.53;8.43;;;24.80;99.90;;;;;;4984793;28;21048;-68
2023/08/19 00:26:25;;;;;;;9.13;8.97;;;24.70;99.90;;;;;;4989374;28;20879;-67
2023/08/19 00:28:51;;;;;;;8.70;8.60;;;24.50;99.90;;;;;;4986576;28;20554;-67
2023/08/19 00:31:18;;;;;;;9.17;8.97;;;24.50;99.90;;;;;;4984573;28;20477;-67
2023/08/19 00:33:45;;;;;;;9.03;8.90;;;24.40;99.90;;;;;;4994437;28;20464;-67
2023/08/19 00:36:12;;;;;;;8.60;8.50;;;24.30;99.90;;;;;;4999592;28;20502;-68
2023/08/19 00:38:39;;;;;;;8.60;8.50;;;24.30;99.90;;;;;;4990500;28;20578;-68
2023/08/19 00:41:07;;;;;;;8.10;8.00;;;24.30;99.90;;;;;;4986698;28;20463;-68
2023/08/19 00:43:36;;;;;;;8.13;8.03;;;24.20;99.90;;;;;;4981011;28;21085;-67
2023/08/19 00:46:03;;;;;;;8.67;8.57;;;24.10;99.90;;;;;;4986064;28;20549;-68
2023/08/19 00:48:31;;;;;;;7.90;7.80;;;24.00;99.90;;;;;;4987289;28;20833;-67
2023/08/19 00:50:58;;;;;;;7.90;7.80;;;24.00;99.90;;;;;;4985892;28;20838;-67
2023/08/19 00:53:26;;;;;;;7.57;7.47;;;23.90;99.90;;;;;;4988341;28;20458;-67
2023/08/19 00:55:54;;;;;;;7.47;7.37;;;23.90;99.90;;;;;;4993861;28;20493;-67
2023/08/19 00:58:23;;;;;;;7.50;7.40;;;23.90;99.90;;;;;;4982958;28;20549;-68
2023/08/19 01:00:53;;;;;;;7.50;7.40;;;23.80;99.90;;;;;;4983907;28;20471;-67
2023/08/19 01:03:19;;;;;;;7.20;7.10;;;23.80;99.90;;;;;;4983103;28;20472;-67
2023/08/19 01:05:57;;;;;;;7.73;7.63;;;23.70;99.90;;;;;;4989132;28;20466;-67
2023/08/19 01:08:30;;;;;;;7.00;6.90;;;23.60;99.90;;;;;;5004293;28;20461;-67
2023/08/19 01:11:04;;;;;;;7.00;6.90;;;23.60;99.90;;;;;;4992306;28;20482;-67
2023/08/19 01:13:38;;;;;;;7.03;6.93;;;23.60;99.90;;;;;;4985341;28;20474;-67
2023/08/19 01:16:12;;;;;;;7.10;7.00;;;23.60;99.90;;;;;;4975784;28;21181;-68
2023/08/19 01:18:40;;;;;;;7.13;7.03;;;23.60;99.90;;;;;;4982622;28;20497;-67
2023/08/19 01:21:08;;;;;;;7.40;7.30;;;23.60;99.90;;;;;;4991931;28;20457;-68
2023/08/19 01:23:41;;;;;;;7.10;7.00;;;23.60;99.90;;;;;;4994354;28;20459;-68
2023/08/19 01:26:09;;;;;;;6.50;6.40;;;23.60;99.90;;;;;;4986453;28;20940;-67
2023/08/19 01:28:37;;;;;;;6.97;6.87;;;23.50;99.90;;;;;;4986582;28;20459;-68
2023/08/19 01:31:03;;;;;;;6.70;6.60;;;23.50;99.90;;;;;;4988754;28;20471;-67
2023/08/19 01:33:30;;;;;;;6.67;6.57;;;23.50;99.90;;;;;;4995263;28;20971;-67
2023/08/19 01:36:07;;;;;;;6.80;6.70;;;23.50;99.90;;;;;;4985798;28;20479;-67
2023/08/19 01:38:39;;;;;;;6.90;6.80;;;23.40;99.90;;;;;;4992075;28;20461;-67
2023/08/19 01:41:06;;;;;;;6.40;6.30;;;23.40;99.90;;;;;;4993304;28;20517;-67
2023/08/19 01:43:35;;;;;;;6.60;6.50;;;23.40;99.90;;;;;;4992194;28;20461;-68
2023/08/19 01:46:02;;;;;;;6.40;6.30;;;23.40;99.90;;;;;;4997855;28;20479;-67
2023/08/19 01:48:30;;;;;;;7.03;6.93;;;23.40;99.90;;;;;;4988619;28;20470;-67
2023/08/19 01:50:57;;;;;;;6.30;6.20;;;23.40;99.90;;;;;;4988668;28;20462;-67
2023/08/19 01:53:23;;;;;;;6.37;6.27;;;23.40;99.90;;;;;;4990498;28;20489;-68
2023/08/19 01:55:50;;;;;;;6.63;6.53;;;23.40;99.90;;;;;;4995650;28;20468;-67
2023/08/19 01:58:17;;;;;;;6.70;6.60;;;23.40;99.90;;;;;;4996519;28;20466;-67
2023/08/19 02:00:46;;;;;;;7.47;7.37;;;23.50;99.90;;;;;;4988507;28;20886;-67
2023/08/19 02:03:12;;;;;;;7.40;7.30;;;23.50;99.90;;;;;;4983847;28;21188;-66
2023/08/19 02:05:39;;;;;;;7.00;6.90;;;23.60;99.90;;;;;;4988806;28;20863;-67
2023/08/19 02:08:06;;;;;;;7.30;7.20;;;23.60;99.90;;;;;;5001776;28;20450;-67
2023/08/19 02:10:33;;;;;;;7.30;7.20;;;23.70;99.90;;;;;;4992596;28;20866;-67
2023/08/19 02:13:00;;;;;;;7.50;7.40;;;23.70;99.90;;;;;;4996399;28;20469;-67
2023/08/19 02:15:27;;;;;;;7.47;7.37;;;23.80;99.90;;;;;;4990172;28;20828;-67
2023/08/19 02:17:56;;;;;;;7.80;7.70;;;23.80;99.90;;;;;;4988725;28;21028;-67
2023/08/19 02:20:22;;;;;;;7.80;7.70;;;23.80;99.90;;;;;;4989546;28;20501;-67
2023/08/19 02:22:49;;;;;;;8.40;8.30;;;23.90;99.90;;;;;;4996801;28;20823;-68
2023/08/19 02:25:16;;;;;;;8.37;8.27;;;23.90;99.90;;;;;;4987565;28;20483;-68
2023/08/19 02:27:44;;;;;;;8.00;7.90;;;23.90;99.90;;;;;;4989156;28;20459;-67
2023/08/19 02:30:12;;;;;;;8.20;8.10;;;24.00;99.90;;;;;;4983524;28;20566;-67
2023/08/19 02:32:40;;;;;;;8.43;8.33;;;24.00;99.90;;;;;;4987847;28;20470;-67
2023/08/19 02:35:10;;;;;;;8.27;8.17;;;24.00;99.90;;;;;;4988674;28;20546;-67
2023/08/19 02:37:37;;;;;;;8.10;8.00;;;24.00;99.90;;;;;;5005567;28;20585;-67
2023/08/19 02:40:04;;;;;;;7.70;7.60;;;24.00;99.90;;;;;;4990090;28;20499;-68
2023/08/19 02:42:31;;;;;;;7.80;7.70;;;23.90;99.90;;;;;;4984449;28;20458;-68
2023/08/19 02:44:59;;;;;;;7.77;7.67;;;23.90;99.90;;;;;;4995822;28;20923;-67
2023/08/19 02:47:26;;;;;;;7.67;7.57;;;23.90;99.90;;;;;;5001229;28;20521;-67
2023/08/19 02:49:53;;;;;;;7.77;7.67;;;23.90;99.90;;;;;;4983901;28;20477;-68
2023/08/19 02:52:21;;;;;;;7.97;7.87;;;23.80;99.90;;;;;;4983631;28;20958;-67
2023/08/19 02:54:48;;;;;;;7.97;7.87;;;23.80;99.90;;;;;;4987659;28;20489;-67
2023/08/19 02:57:15;;;;;;;7.50;7.40;;;23.80;99.90;;;;;;5000983;28;21020;-67
2023/08/19 02:59:42;;;;;;;7.80;7.70;;;23.80;99.90;;;;;;5001741;28;20504;-67
2023/08/19 03:02:09;;;;;;;7.57;7.47;;;23.80;99.90;;;;;;4985746;28;20973;-67
2023/08/19 03:04:37;;;;;;;8.60;8.50;;;23.80;99.90;;;;;;4986731;28;20459;-67
2023/08/19 03:07:05;;;;;;;7.60;7.50;;;23.80;99.90;;;;;;4984547;28;20600;-67
2023/08/19 03:09:34;;;;;;;8.40;8.30;;;23.90;99.90;;;;;;4987692;28;20459;-67
2023/08/19 03:12:01;;;;;;;7.80;7.70;;;23.90;99.90;;;;;;4986463;28;21042;-67
2023/08/19 03:14:28;;;;;;;8.00;7.90;;;23.80;99.90;;;;;;4987599;28;20545;-67
2023/08/19 03:16:55;;;;;;;8.33;8.23;;;23.80;99.90;;;;;;4984729;28;20494;-67
2023/08/19 03:19:22;;;;;;;8.20;8.10;;;23.80;99.90;;;;;;4995944;28;20537;-67
2023/08/19 03:21:49;;;;;;;8.00;7.90;;;23.80;99.90;;;;;;5002168;28;20462;-67
2023/08/19 03:24:16;;;;;;;8.47;8.37;;;23.80;99.90;;;;;;4997017;28;20493;-66
2023/08/19 03:26:45;;;;;;;8.20;8.10;;;23.80;99.90;;;;;;4985160;28;20462;-66
2023/08/19 03:29:12;;;;;;;8.20;8.10;;;23.80;99.90;;;;;;4986760;28;20459;-67
2023/08/19 03:31:39;;;;;;;8.40;8.30;;;23.80;99.90;;;;;;4982249;28;20471;-69
2023/08/19 03:34:07;;;;;;;8.40;8.30;;;23.70;99.90;;;;;;4988574;28;20462;-66
2023/08/19 03:36:34;;;;;;;8.53;8.43;;;23.70;99.90;;;;;;5000942;28;20458;-67
2023/08/19 03:39:01;;;;;;;8.40;8.30;;;23.70;99.90;;;;;;4985925;28;20468;-69
2023/08/19 03:41:27;;;;;;;8.83;8.73;;;23.70;99.90;;;;;;4984748;28;20470;-66
2023/08/19 03:43:55;;;;;;;8.43;8.33;;;23.60;99.90;;;;;;4988453;28;20455;-67
2023/08/19 03:46:22;;;;;;;8.77;8.67;;;23.50;99.90;;;;;;5001720;28;20457;-66
2023/08/19 03:48:50;;;;;;;8.80;8.70;;;23.60;99.90;;;;;;4984606;28;20478;-66
2023/08/19 03:51:17;;;;;;;8.23;8.13;;;23.60;99.90;;;;;;4987271;28;20450;-67
2023/08/19 03:53:43;;;;;;;8.37;8.27;;;23.50;99.90;;;;;;4994502;28;20490;-67
2023/08/19 03:56:10;;;;;;;8.30;8.20;;;23.50;99.90;;;;;;4982391;28;20481;-66
2023/08/19 03:58:37;;;;;;;8.40;8.30;;;23.40;99.90;;;;;;4988930;28;20492;-66
2023/08/19 04:01:06;;;;;;;8.30;8.20;;;23.40;99.90;;;;;;4989482;28;20945;-67
2023/08/19 04:03:34;;;;;;;8.60;8.50;;;23.30;99.90;;;;;;4996757;28;20458;-66
2023/08/19 04:06:01;;;;;;;8.57;8.47;;;23.30;99.90;;;;;;4989953;28;20470;-67
2023/08/19 04:08:29;;;;;;;9.47;9.27;;;23.30;99.90;;;;;;4985508;28;20961;-66
2023/08/19 04:10:56;;;;;;;8.80;8.70;;;23.30;99.90;;;;;;4986128;28;21547;-66
2023/08/19 04:13:23;;;;;;;8.60;8.50;;;23.30;99.90;;;;;;4984021;28;20557;-67
2023/08/19 04:15:49;;;;;;;8.80;8.70;;;23.20;99.90;;;;;;4994115;28;20523;-67
2023/08/19 04:18:17;;;;;;;8.90;8.80;;;23.20;99.90;;;;;;4990576;28;20505;-68
2023/08/19 04:20:44;;;;;;;8.80;8.70;;;23.20;99.90;;;;;;4990571;28;20599;-66
2023/08/19 04:23:12;;;;;;;8.73;8.63;;;23.20;99.90;;;;;;4983335;28;20470;-66
2023/08/19 04:25:39;;;;;;;8.70;8.60;;;23.20;99.90;;;;;;4984245;28;20466;-67
2023/08/19 04:28:07;;;;;;;8.63;8.53;;;23.30;99.90;;;;;;4982024;28;20482;-67
2023/08/19 04:30:34;;;;;;;8.90;8.80;;;23.30;99.90;;;;;;4986790;28;20542;-67
2023/08/19 04:33:01;;;;;;;9.10;8.93;;;23.30;99.90;;;;;;4995386;28;20462;-66
2023/08/19 04:35:29;;;;;;;8.90;8.80;;;23.30;99.90;;;;;;4988704;28;20842;-67
2023/08/19 04:37:56;;;;;;;8.90;8.80;;;23.30;99.90;;;;;;4988276;28;20589;-66
2023/08/19 04:40:23;;;;;;;8.70;8.60;;;23.30;99.90;;;;;;4975967;28;21009;-66
2023/08/19 04:42:49;;;;;;;8.23;8.13;;;23.30;99.90;;;;;;4983873;28;20469;-67
2023/08/19 04:45:17;;;;;;;8.40;8.30;;;23.30;99.90;;;;;;4989842;28;20896;-67
2023/08/19 04:47:44;;;;;;;8.30;8.20;;;23.30;99.90;;;;;;4988361;28;20467;-66
2023/08/19 04:50:11;;;;;;;8.27;8.17;;;23.30;99.90;;;;;;4985792;28;20466;-67
2023/08/19 04:52:39;;;;;;;8.27;8.17;;;23.40;99.90;;;;;;4983349;28;20473;-66
2023/08/19 04:55:06;;;;;;;8.70;8.60;;;23.40;99.90;;;;;;4984081;28;20478;-67
2023/08/19 04:57:33;;;;;;;8.77;8.67;;;23.40;99.90;;;;;;4984984;28;20588;-67
2023/08/19 05:00:00;;;;;;;8.30;8.20;;;23.40;99.90;;;;;;4987161;28;20450;-66
2023/08/19 05:02:27;;;;;;;8.50;8.40;;;23.40;99.90;;;;;;4987151;28;20489;-67
2023/08/19 05:04:54;;;;;;;8.30;8.20;;;23.40;99.90;;;;;;4976847;28;20458;-67
2023/08/19 05:07:21;;;;;;;8.70;8.60;;;23.40;99.90;;;;;;4978332;28;21044;-67
2023/08/19 05:09:49;;;;;;;8.70;8.60;;;23.40;99.90;;;;;;4992010;28;20476;-66
2023/08/19 05:12:15;;;;;;;9.20;9.00;;;23.50;99.90;;;;;;4996828;28;20457;-67
2023/08/19 05:14:42;;;;;;;8.90;8.80;;;23.50;99.90;;;;;;4990088;28;20470;-67
2023/08/19 05:17:10;;;;;;;9.33;9.13;;;23.60;99.90;;;;;;4993594;28;20473;-67
2023/08/19 05:19:37;;;;;;;8.90;8.80;;;23.60;99.90;;;;;;4997329;28;20460;-66
2023/08/19 05:22:04;;;;;;;9.30;9.10;;;23.70;99.90;;;;;;4995759;28;20458;-67
2023/08/19 05:24:31;;;;;;;8.80;8.70;;;23.80;99.90;;;;;;4989785;28;21015;-67
2023/08/19 05:27:00;;;;;;;9.13;9.00;;;23.80;99.90;;;;;;4979290;28;20501;-68
2023/08/19 05:29:27;;;;;;;9.83;9.63;;;23.80;99.90;;;;;;4989452;28;20454;-67
2023/08/19 05:31:54;;;;;;;9.67;9.47;;;23.80;99.90;;;;;;4984456;28;20561;-67
2023/08/19 05:34:21;;;;;;;9.80;9.60;;;23.90;99.90;;;;;;4991014;28;20673;-67
2023/08/19 05:36:48;;;;;;;10.03;9.83;;;23.90;99.90;;;;;;4992587;28;20462;-67
2023/08/19 05:39:15;;;;;;;9.70;9.50;;;24.00;99.90;;;;;;4979366;28;20590;-66
2023/08/19 05:41:42;;;;;;;9.63;9.43;;;24.10;99.90;;;;;;4987530;28;20521;-67
2023/08/19 05:44:10;;;;;;;9.80;9.60;;;24.10;99.90;;;;;;4985939;28;20462;-67
2023/08/19 05:46:37;;;;;;;9.87;9.67;;;24.10;99.90;;;;;;4991092;28;20466;-66
2023/08/19 05:49:04;;;;;;;9.93;9.73;;;24.10;99.90;;;;;;4984880;28;20512;-67
2023/08/19 05:51:31;;;;;;;9.70;9.50;;;24.20;99.90;;;;;;4988681;28;20467;-67
2023/08/19 05:54:00;;;;;;;9.70;9.50;;;24.20;99.90;;;;;;4983958;28;20489;-67
2023/08/19 05:56:27;;;;;;;9.90;9.70;;;24.20;99.90;;;;;;4994241;28;20813;-67
2023/08/19 05:58:54;;;;;;;9.43;9.23;;;24.20;99.90;;;;;;4984132;28;20505;-67
2023/08/19 06:01:22;;;;;;;10.50;10.30;;;24.30;99.90;;;;;;4986435;28;20466;-67
2023/08/19 06:03:49;;;;;;;10.00;9.80;;;24.30;99.90;;;;;;4988761;28;20862;-67
2023/08/19 06:06:16;;;;;;;10.17;9.97;;;24.30;99.90;;;;;;4988682;28;20965;-67
2023/08/19 06:08:43;;;;;;;10.13;9.93;;;24.30;99.90;;;;;;4993013;28;20462;-66
2023/08/19 06:11:10;;;;;;;9.80;9.60;;;24.30;99.90;;;;;;4982064;28;20494;-67
2023/08/19 06:13:38;;;;;;;10.10;9.90;;;24.30;99.90;;;;;;4987631;28;20516;-68
2023/08/19 06:16:06;;;;;;;10.10;9.90;;;24.40;99.90;;;;;;4990997;28;20820;-67
2023/08/19 06:18:35;;;;;;;10.17;9.97;;;24.50;99.90;;;;;;4980275;28;21539;-67
2023/08/19 06:21:03;;;;;;;10.40;10.20;;;24.60;99.90;;;;;;4990350;28;20463;-67
2023/08/19 06:23:30;;;;;;;10.83;10.63;;;24.70;99.90;;;;;;4997838;28;20461;-67
2023/08/19 06:25:57;;;;;;;10.50;10.30;;;24.70;99.90;;;;;;4990131;28;20467;-67
2023/08/19 06:28:23;;;;;;;10.60;10.40;;;24.70;99.90;;;;;;4990471;28;20488;-67
2023/08/19 06:30:51;;;;;;;10.60;10.40;;;24.70;99.90;;;;;;4992593;28;20470;-67
2023/08/19 06:33:19;;;;;;;10.43;10.23;;;24.80;99.90;;;;;;4993790;28;20454;-67
2023/08/19 06:35:49;;;;;;;10.50;10.30;;;24.80;99.90;;;;;;4990195;28;20485;-67
2023/08/19 06:38:19;;;;;;;10.90;10.70;;;25.00;99.90;;;;;;4998510;28;20493;-67
2023/08/19 06:40:54;;;;;;;10.90;10.70;;;25.00;99.90;;;;;;4981357;28;20466;-66
2023/08/19 06:43:24;;;;;;;10.60;10.40;;;25.10;99.90;;;;;;4983191;28;20789;-67
2023/08/19 06:45:53;;;;;;;10.60;10.40;;;25.20;99.90;;;;;;4982170;28;20466;-67
2023/08/19 06:48:21;;;;;;;10.30;10.10;;;25.20;99.90;;;;;;4984950;28;20494;-67
2023/08/19 06:50:50;;;;;;;10.37;10.17;;;25.30;99.90;;;;;;4986754;28;20454;-67
2023/08/19 06:53:18;;;;;;;11.27;10.97;;;25.40;99.90;;;;;;4986599;28;20458;-66
2023/08/19 06:55:55;;;;;;;10.70;10.50;;;25.40;99.90;;;;;;4994275;28;20827;-67
2023/08/19 06:58:26;;;;;;;10.60;10.40;;;25.60;99.90;;;;;;4986006;28;20576;-68
2023/08/19 07:00:59;;;;;;;10.87;10.67;;;25.70;99.90;;;;;;4982094;28;20759;-67
2023/08/19 07:03:29;;;;;;;11.13;10.90;;;25.70;99.90;;;;;;4978370;28;20665;-67
2023/08/19 07:06:02;;;;;;;10.70;10.50;;;25.80;99.90;;;;;;4986782;28;20858;-67
2023/08/19 07:08:31;;;;;;;10.60;10.40;;;25.90;99.90;;;;;;5001996;28;20462;-67
2023/08/19 07:10:59;;;;;;;10.60;10.40;;;25.80;99.90;;;;;;4988225;28;20474;-67
2023/08/19 07:13:26;;;;;;;10.97;10.77;;;25.90;99.90;;;;;;4987758;28;20837;-66
2023/08/19 07:15:59;;;;;;;10.87;10.67;;;26.00;99.90;;;;;;5000204;28;20485;-67
2023/08/19 07:18:28;;;;;;;11.00;10.80;;;26.20;99.90;;;;;;4993018;28;20505;-66
2023/08/19 07:20:57;;;;;;;11.57;11.27;;;26.30;99.90;;;;;;4983916;28;20470;-66
2023/08/19 07:23:25;;;;;;;11.23;10.97;;;26.50;99.90;;;;;;4981196;28;20958;-67
2023/08/19 07:25:52;;;;;;;11.13;10.90;;;26.70;99.90;;;;;;4987411;28;20478;-67
2023/08/19 07:28:23;;;;;;;10.73;10.53;;;26.60;99.90;;;;;;4985324;28;20470;-67
2023/08/19 07:30:50;;;;;;;11.33;11.03;;;26.70;99.90;;;;;;4981303;28;20490;-67
2023/08/19 07:33:17;;;;;;;11.00;10.80;;;26.90;99.90;;;;;;4979978;28;20470;-67
2023/08/19 07:35:44;;;;;;;10.73;10.53;;;27.10;99.90;;;;;;4983341;28;20560;-68
2023/08/19 07:38:11;;;;;;;10.70;10.50;;;26.90;99.90;;;;;;4980684;28;20490;-67
2023/08/19 07:40:39;;;;;;;12.00;11.70;;;27.00;99.90;;;;;;4982226;28;20958;-67
2023/08/19 07:43:06;;;;;;;11.83;11.53;;;27.10;99.90;;;;;;4983325;28;20465;-67
2023/08/19 07:45:33;;;;;;;11.17;10.93;;;27.10;99.90;;;;;;4983076;28;21055;-67
2023/08/19 07:48:00;;;;;;;11.20;10.97;;;27.10;99.90;;;;;;4976707;28;20846;-67
2023/08/19 07:50:27;;;;;;;11.50;11.20;;;27.20;99.90;;;;;;4981087;28;20457;-68
2023/08/19 07:52:54;;;;;;;11.80;11.50;;;27.40;99.90;;;;;;4980764;28;20477;-68
2023/08/19 07:55:21;;;;;;;10.90;10.70;;;27.40;99.90;;;;;;4981285;28;20581;-68
2023/08/19 07:57:49;;;;;;;11.37;11.07;;;27.70;99.90;;;;;;4982647;28;20565;-68
2023/08/19 08:00:17;;;;;;;11.43;11.13;;;27.60;99.90;;;;;;4982996;28;21172;-68
2023/08/19 08:02:43;;;;;;;11.50;11.20;;;27.70;99.90;;;;;;4985916;28;21087;-68
2023/08/19 08:05:11;;;;;;;11.43;11.13;;;27.70;99.90;;;;;;4983535;28;20463;-68
2023/08/19 08:07:38;;;;;;;11.27;10.97;;;27.90;99.90;;;;;;4974552;28;20463;-68
2023/08/19 08:10:06;;;;;;;12.07;11.77;;;27.90;99.90;;;;;;4980773;28;20486;-68
2023/08/19 08:12:33;;;;;;;11.93;11.63;;;28.00;99.90;;;;;;4982801;28;20942;-68
2023/08/19 08:15:03;;;;;;;11.50;11.20;;;28.20;99.90;;;;;;4977876;28;20501;-69
2023/08/19 08:17:30;;;;;;;11.73;11.43;;;28.50;99.90;;;;;;4983478;28;20482;-68
2023/08/19 08:19:57;;;;;;;11.80;11.50;;;28.70;99.90;;;;;;4978306;28;21013;-68
2023/08/19 08:22:25;;;;;;;11.73;11.43;;;28.80;99.90;;;;;;4982583;28;20499;-68
2023/08/19 08:24:53;;;;;;;11.97;11.67;;;29.00;99.90;;;;;;4977178;28;20476;-68
2023/08/19 08:27:20;;;;;;;12.00;11.70;;;29.20;99.90;;;;;;4982213;28;20463;-68
2023/08/19 08:29:46;;;;;;;12.20;11.90;;;29.50;99.90;;;;;;4982456;28;20481;-67
2023/08/19 08:32:14;;;;;;;11.90;11.60;;;29.60;99.90;;;;;;4981395;28;20911;-68
2023/08/19 08:34:41;;;;;;;12.70;12.40;;;29.40;99.90;;;;;;4981457;28;20482;-68
2023/08/19 08:37:08;;;;;;;12.10;11.80;;;29.70;99.90;;;;;;4987949;28;20788;-68
2023/08/19 08:39:35;;;;;;;11.90;11.60;;;29.90;99.90;;;;;;4981874;28;20478;-68
2023/08/19 08:42:03;;;;;;;12.70;12.40;;;30.10;99.90;;;;;;4984748;28;20455;-68
2023/08/19 08:44:31;;;;;;;12.60;12.30;;;30.40;99.90;;;;;;4982044;28;20475;-68
2023/08/19 08:46:59;;;;;;;13.00;12.60;;;30.70;99.90;;;;;;4982615;28;20825;-68
2023/08/19 08:49:28;;;;;;;12.90;12.50;;;30.80;99.90;;;;;;4979401;28;20492;-68
2023/08/19 08:51:56;;;;;;;12.57;12.27;;;30.90;99.90;;;;;;4983625;28;20872;-68
2023/08/19 08:54:24;;;;;;;13.07;12.67;;;30.70;99.90;;;;;;4977199;28;20494;-68
2023/08/19 08:56:51;;;;;;;12.90;12.50;;;31.00;99.90;;;;;;4979455;28;20561;-68
2023/08/19 08:59:18;;;;;;;12.83;12.43;;;31.30;99.90;;;;;;4980943;28;20517;-68
2023/08/19 09:01:47;;;;;;;12.97;12.57;;;31.30;99.90;;;;;;4981210;28;20474;-68
2023/08/19 09:04:16;;;;;;;12.93;12.53;;;31.50;99.90;;;;;;4981702;28;20514;-68
2023/08/19 09:06:49;;;;;;;13.60;13.20;;;31.90;99.90;;;;;;4985547;28;20513;-68
2023/08/19 09:09:18;;;;;;;13.70;13.30;;;32.30;99.90;;;;;;4978138;28;20491;-68
2023/08/19 09:11:48;;;;;;;13.50;13.10;;;32.80;99.90;;;;;;4980617;28;20909;-68
2023/08/19 09:14:22;;;;;;;13.47;13.07;;;32.80;99.90;;;;;;4984715;28;20993;-68
2023/08/19 09:16:49;;;;;;;13.17;12.77;;;32.70;99.90;;;;;;4984558;28;20485;-69
2023/08/19 09:19:16;;;;;;;13.53;13.13;;;32.70;99.90;;;;;;4981734;28;20490;-69
2023/08/19 09:21:44;;;;;;;13.70;13.30;;;32.90;99.90;;;;;;4984286;28;20454;-69
2023/08/19 09:24:16;;;;;;;13.70;13.30;;;33.20;99.90;;;;;;4982707;28;20498;-68
2023/08/19 09:26:42;;;;;;;13.70;13.30;;;33.70;99.90;;;;;;4985850;28;20493;-68
2023/08/19 09:29:10;;;;;;;13.77;13.37;;;34.00;99.90;;;;;;4984850;28;20852;-68
2023/08/19 09:31:38;;;;;;;13.40;13.00;;;34.20;99.90;;;;;;4983593;28;20466;-68
2023/08/19 09:34:05;;;;;;;13.40;13.00;;;34.10;99.90;;;;;;4982051;28;20565;-69
2023/08/19 09:36:33;;;;;;;13.47;13.07;;;34.10;99.90;;;;;;4985662;28;20461;-68
2023/08/19 09:39:01;;;;;;;13.27;12.87;;;33.80;99.90;;;;;;4984899;28;20505;-68
2023/08/19 09:41:29;;;;;;;12.70;12.40;;;33.50;99.90;;;;;;4980589;28;20462;-68
2023/08/19 09:43:57;;;;;;;13.10;12.70;;;33.60;99.90;;;;;;4984017;28;20829;-68
2023/08/19 09:46:31;;;;;;;13.10;12.70;;;32.80;99.90;;;;;;4984169;28;20845;-68
2023/08/19 09:48:58;;;;;;;12.80;12.50;;;32.60;99.90;;;;;;4979208;28;20510;-68
2023/08/19 09:51:26;;;;;;;12.90;12.60;;;32.20;99.90;;;;;;4981084;28;20470;-68
2023/08/19 09:53:53;;;;;;;12.57;12.27;;;32.00;99.90;;;;;;4987460;28;20482;-68
2023/08/19 09:56:22;;;;;;;12.77;12.47;;;31.80;99.90;;;;;;4987874;28;20470;-68
2023/08/19 09:58:51;;;;;;;12.87;12.57;;;32.00;99.90;;;;;;4981404;28;20573;-69
2023/08/19 10:01:18;;;;;;;12.70;12.40;;;32.50;99.90;;;;;;4992687;28;20545;-68
2023/08/19 10:03:45;;;;;;;12.27;11.97;;;32.40;99.90;;;;;;4988339;28;20466;-67
2023/08/19 10:06:14;;;;;;;11.67;11.37;;;32.20;99.90;;;;;;4987790;28;21098;-67
2023/08/19 10:08:44;;;;;;;12.00;11.70;;;32.00;99.90;;;;;;4986067;28;20831;-67
2023/08/19 10:11:13;;;;;;;11.90;11.60;;;31.40;99.90;;;;;;4984378;28;20466;-67
2023/08/19 10:13:42;;;;;;;11.70;11.40;;;30.80;99.90;;;;;;4988351;28;20486;-67
2023/08/19 10:16:09;;;;;;;11.73;11.43;;;30.40;99.90;;;;;;4985375;28;20478;-67
2023/08/19 10:18:38;;;;;;;10.60;10.40;;;29.80;99.90;;;;;;4984426;28;20470;-67
2023/08/19 10:21:09;;;;;;;10.20;10.00;;;29.40;99.90;;;;;;4987918;28;20460;-67
2023/08/19 10:23:41;;;;;;;10.60;10.40;;;29.30;99.90;;;;;;4986654;28;20463;-67
2023/08/19 10:26:09;;;;;;;10.27;10.07;;;29.20;99.90;;;;;;4985342;28;20471;-68
2023/08/19 10:28:36;;;;;;;10.77;10.57;;;29.30;99.90;;;;;;4983737;28;20466;-67
2023/08/19 10:31:09;;;;;;;10.53;10.33;;;29.30;99.90;;;;;;4987004;28;21095;-67
2023/08/19 10:33:42;;;;;;;10.50;10.30;;;29.30;99.90;;;;;;4988648;28;20459;-68
2023/08/19 10:36:10;;;;;;;11.23;11.03;;;29.60;99.90;;;;;;4988032;28;20462;-68
2023/08/19 10:38:42;;;;;;;11.00;10.80;;;29.60;99.90;;;;;;4986707;28;20466;-68
2023/08/19 10:41:18;;;;;;;10.50;10.30;;;29.80;99.90;;;;;;4980117;28;20490;-68
2023/08/19 10:43:54;;;;;;;10.73;10.53;;;30.00;99.90;;;;;;4987424;28;20490;-68
2023/08/19 10:46:26;;;;;;;10.57;10.37;;;30.20;99.90;;;;;;4986649;28;20821;-69
2023/08/19 10:48:53;;;;;;;11.20;11.00;;;30.40;99.90;;;;;;4982176;28;20549;-68
2023/08/19 10:51:20;;;;;;;10.90;10.70;;;30.60;99.90;;;;;;4983096;28;21037;-69
2023/08/19 10:53:50;;;;;;;10.53;10.33;;;30.60;99.90;;;;;;4991480;28;20483;-68
2023/08/19 10:56:20;;;;;;;10.97;10.77;;;30.30;99.90;;;;;;4987248;28;20828;-68
2023/08/19 10:58:49;;;;;;;10.83;10.63;;;30.30;99.90;;;;;;4987088;28;20451;-69
2023/08/19 11:01:15;;;;;;;11.30;11.03;;;29.90;99.90;;;;;;4987850;28;20827;-68
2023/08/19 11:03:44;;;;;;;10.47;10.27;;;29.80;99.90;;;;;;4987035;28;20466;-68
2023/08/19 11:06:11;;;;;;;10.70;10.50;;;29.90;99.90;;;;;;4980714;28;20850;-68
2023/08/19 11:08:44;;;;;;;10.90;10.70;;;30.00;99.90;;;;;;4986284;28;20450;-68
2023/08/19 11:11:16;;;;;;;10.77;10.57;;;30.20;99.90;;;;;;4987369;28;20458;-68
2023/08/19 11:13:44;;;;;;;11.00;10.80;;;30.20;99.90;;;;;;4986295;28;20450;-68
2023/08/19 11:16:11;;;;;;;10.50;10.30;;;30.10;99.90;;;;;;4980592;28;20537;-69
2023/08/19 11:18:43;;;;;;;11.00;10.80;;;30.20;99.90;;;;;;4983317;28;20451;-68
2023/08/19 11:21:09;;;;;;;10.60;10.40;;;30.30;99.90;;;;;;4986885;28;20505;-69
2023/08/19 11:23:37;;;;;;;11.57;11.27;;;30.40;99.90;;;;;;4986802;28;20458;-68
2023/08/19 11:26:04;;;;;;;11.37;11.07;;;30.60;99.90;;;;;;4987234;28;20465;-68
2023/08/19 11:28:33;;;;;;;11.10;10.90;;;30.60;99.90;;;;;;4985767;28;20466;-69
2023/08/19 11:31:00;;;;;;;10.93;10.73;;;30.20;99.90;;;;;;4983760;28;20545;-69
2023/08/19 11:33:30;;;;;;;10.27;10.07;;;29.70;99.90;;;;;;4985090;28;20471;-68
2023/08/19 11:35:59;;;;;;;10.53;10.33;;;29.50;99.90;;;;;;4980030;28;20474;-67
2023/08/19 11:38:26;;;;;;;10.60;10.40;;;29.30;99.90;;;;;;4984831;28;20455;-68
2023/08/19 11:40:53;;;;;;;10.80;10.60;;;29.40;99.90;;;;;;4985886;28;20529;-67
2023/08/19 11:43:24;;;;;;;10.23;10.03;;;29.50;99.90;;;;;;4977327;28;20462;-69
2023/08/19 11:45:51;;;;;;;10.27;10.07;;;29.60;99.90;;;;;;4984596;28;20466;-68
2023/08/19 11:48:19;;;;;;;10.43;10.23;;;29.70;99.90;;;;;;4980230;28;20462;-67
2023/08/19 11:50:50;;;;;;;9.70;9.50;;;29.50;99.90;;;;;;4983057;28;20455;-68
2023/08/19 11:53:29;;;;;;;10.33;10.13;;;29.10;99.90;;;;;;4983625;28;20454;-69
2023/08/19 11:56:00;;;;;;;10.60;10.40;;;29.10;99.90;;;;;;4985936;28;20458;-67
2023/08/19 11:58:37;;;;;;;10.30;10.10;;;29.20;99.90;;;;;;4982801;28;20978;-68
2023/08/19 12:01:05;;;;;;;10.60;10.40;;;29.10;99.90;;;;;;4986697;28;21178;-68
2023/08/19 12:03:33;;;;;;;10.23;10.03;;;29.20;99.90;;;;;;4986048;28;20451;-68
2023/08/19 12:06:00;;;;;;;9.90;9.70;;;29.30;99.90;;;;;;4985092;28;20465;-67
2023/08/19 12:08:33;;;;;;;10.17;9.97;;;29.40;99.90;;;;;;4984551;28;20463;-68
2023/08/19 12:11:00;;;;;;;9.87;9.67;;;29.80;99.90;;;;;;4983080;28;20458;-68
2023/08/19 12:13:30;;;;;;;10.00;9.80;;;30.00;99.90;;;;;;4981824;28;20958;-68
2023/08/19 12:15:58;;;;;;;9.43;9.23;;;30.10;99.90;;;;;;4983190;28;20470;-67
2023/08/19 12:18:25;;;;;;;9.53;9.33;;;30.10;99.90;;;;;;4984171;28;20557;-68
2023/08/19 12:20:53;;;;;;;9.40;9.20;;;29.80;99.90;;;;;;4986352;28;20490;-67
2023/08/19 12:23:20;;;;;;;10.07;9.87;;;30.20;99.90;;;;;;4981628;28;20524;-69
2023/08/19 12:25:52;;;;;;;10.07;9.87;;;30.10;99.90;;;;;;4985502;28;20470;-69
2023/08/19 12:28:19;;;;;;;10.37;10.17;;;29.90;99.90;;;;;;4983602;28;20867;-66
2023/08/19 12:30:46;;;;;;;10.60;10.40;;;29.60;99.90;;;;;;4983399;28;20897;-69
2023/08/19 12:33:13;;;;;;;10.10;9.90;;;29.60;99.90;;;;;;4985629;28;20469;-67
2023/08/19 12:35:41;;;;;;;10.20;10.00;;;29.50;99.90;;;;;;4985409;28;20451;-67
2023/08/19 12:38:09;;;;;;;10.60;10.40;;;29.40;99.90;;;;;;4979678;28;20510;-67
2023/08/19 12:40:37;;;;;;;10.10;9.90;;;29.20;99.90;;;;;;4981830;28;20498;-67
2023/08/19 12:43:05;;;;;;;10.30;10.10;;;28.80;99.90;;;;;;4985136;28;20454;-67